• Join FlightAware (Why Join?)
  • Login
  • US Flag 
07:36AM EDT


 

Airport Tracker/Info


-or-


 

Live Flight TrackerFlight Track Log ✈ SWA1049 ✈ 03-May-2013 ✈ KMDW - KIAD

Flight Track Log - Related Links

Times and Time Zones

All times are in EDT time to prevent confusion due to time zone crossing. See the SWA1049 flight status page for this flight to view local times or setup timezone preferences in your user account.

Time Position Orientation Groundspeed Altitude Reporting Facility
EDT Latitude Longitude Course Direction KTS MPH feet Rate Location/Type
09:56AM 41.8167 -87.7500 90° East 169 194 2,200  Level Chicago TRACON
09:57AM 41.8258 -87.6197 85° East 232 267 6,200 3,000 Climbing Chicago Center
09:58AM 41.8372 -87.5161 82° East 271 312 10,400 3,660 Climbing Chicago Center
09:59AM 41.8236 -87.4094 100° East 297 342 13,800 2,760 Climbing Chicago Center
10:00AM 41.7989 -87.2711 103° East 322 371 16,200 2,580 Climbing Chicago Center
10:01AM 41.7500 -87.0367 90° East  Level FlightAware Approximate
10:01AM 41.7761 -87.1411 103° East 353 406 19,200  Level Chicago Center
10:02AM 41.7625 -87.0019 97° East 385 443 22,100 2,580 Climbing Chicago Center
10:03AM 41.7633 -86.8558 90° East 393 452 24,600 2,220 Climbing Chicago Center
10:04AM 41.7653 -86.7019 89° East 411 473 26,800 1,980 Climbing Chicago Center
10:05AM 41.7664 -86.5450 89° East 424 488 28,800 1,980 Climbing Chicago Center
10:06AM 41.7681 -86.3497 89° East 436 502 31,000 1,980 Climbing Chicago Center
10:07AM 41.7600 -86.1828 94° East 445 512 32,900 1,560 Climbing Chicago Center
10:09AM 41.7497 -86.0161 95° East 449 517 34,300 1,680 Climbing Chicago Center
10:10AM 41.7386 -85.8453 95° East 457 526 36,400 1,260 Climbing Chicago Center
10:11AM 41.7286 -85.6803 95° East 450 518 37,000 240 Climbing Chicago Center
10:12AM 41.7192 -85.5172 94° East 439 505 37,000  Level Chicago Center
10:13AM 41.7039 -85.3408 97° East 432 497 37,000  Level Chicago Center
10:14AM 41.6961 -85.1792 94° East 458 527 37,000 600 Level Chicago Center
10:14AM 41.6878 -85.0408 95° East 468 539 38,200 1,080 Climbing Cleveland Center
10:16AM 41.6750 -84.8789 96° East 448 516 39,000 360 Climbing Cleveland Center
10:17AM 41.6644 -84.7139 95° East 443 510 39,000  Level Cleveland Center
10:17AM 41.6197 -84.5667 112° Southeast 443 510 39,000  Level Cleveland Center
10:19AM 41.5619 -84.4269 119° Southeast 430 495 39,000  Level Cleveland Center
10:19AM 41.5017 -84.2903 120° Southeast 425 489 39,000  Level Cleveland Center
10:20AM 41.4417 -84.1456 119° Southeast 430 495 39,000  Level Cleveland Center
10:22AM 41.3833 -84.0067 119° Southeast 435 501 39,000  Level Cleveland Center
10:22AM 41.3250 -83.8625 118° Southeast 435 501 39,000  Level Cleveland Center
10:23AM 41.2683 -83.7244 119° Southeast 435 501 39,000  Level Cleveland Center
10:24AM 41.2078 -83.5806 119° Southeast 440 506 39,000  Level Cleveland Center
10:25AM 41.1486 -83.4400 119° Southeast 440 506 39,000  Level Cleveland Center
10:26AM 41.0878 -83.2886 118° Southeast 440 506 39,000  Level Cleveland Center
10:28AM 41.0344 -83.1597 119° Southeast 434 499 39,000  Level Cleveland Center
10:29AM 40.9708 -83.0197 121° Southeast 439 505 39,000  Level Cleveland Center
10:31AM 40.8222 -82.6642 119° Southeast 443 510 39,000  Level Indianapolis Center
10:32AM 40.7497 -82.4969 120° Southeast 447 514 39,000  Level Indianapolis Center
10:33AM 40.6864 -82.3533 120° Southeast 450 518 39,000  Level Indianapolis Center
10:34AM 40.6647 -82.3075 122° Southeast 468 539 39,000  Level Cleveland Center
10:34AM 40.6236 -82.2086 119° Southeast 452 520 39,000  Level Indianapolis Center
10:35AM 40.5606 -82.0656 120° Southeast 451 519 39,000  Level Indianapolis Center
10:36AM 40.5336 -82.0064 121° Southeast 470 541 39,000  Level Cleveland Center
10:37AM 40.4706 -81.8658 120° Southeast 453 521 39,000  Level Cleveland Center
10:38AM 40.4075 -81.7228 120° Southeast 453 521 39,000  Level Cleveland Center
10:39AM 40.3442 -81.5856 121° Southeast 447 514 39,000  Level Cleveland Center
10:40AM 40.2869 -81.4431 118° Southeast 447 514 39,000  Level Cleveland Center
10:41AM 40.2253 -81.3036 120° Southeast 447 514 39,000  Level Cleveland Center
10:42AM 40.1617 -81.1644 121° Southeast 447 514 39,000  Level Cleveland Center
10:43AM 40.1058 -81.0392 120° Southeast 453 521 39,000 -360 Level Cleveland Center
10:44AM 40.0417 -80.9031 122° Southeast 448 516 38,300 -900 Descending Cleveland Center
10:45AM 39.9794 -80.7619 120° Southeast 448 516 37,300 -960 Descending Cleveland Center
10:46AM 39.9128 -80.6183 121° Southeast 453 521 36,400 -960 Descending Cleveland Center
10:47AM 39.8483 -80.4803 121° Southeast 453 521 35,400 -1,020 Descending Cleveland Center
10:48AM 39.7833 -80.3400 121° Southeast 448 516 34,400 -1,800 Descending Cleveland Center
10:49AM 39.7164 -80.2000 122° Southeast 453 521 31,900 -1,740 Descending Cleveland Center
10:50AM 39.6511 -80.0600 121° Southeast 453 521 31,000 -420 Descending Cleveland Center
10:51AM 39.5650 -79.8639 120° Southeast 444 511 31,000 -600 Level Washington Center
10:52AM 39.5331 -79.7086 105° East 439 505 29,600 -1,980 Descending Washington Center
10:53AM 39.5047 -79.5561 103° East 434 499 27,200 -1,320 Descending Washington Center
10:54AM 39.4783 -79.4069 103° East 428 493 27,000 -840 Descending Washington Center
10:55AM 39.4481 -79.2414 103° East 422 486 25,500 -1,440 Descending Washington Center
10:56AM 39.4208 -79.1003 104° East 416 479 24,200 -1,980 Descending Washington Center
10:57AM 39.3956 -78.9619 103° East 411 473 21,600 -2,400 Descending Washington Center
10:58AM 39.3722 -78.8242 102° East 397 457 19,500 -1,920 Descending Washington Center
10:59AM 39.3486 -78.6994 104° East 382 440 17,900 -1,740 Descending Washington Center
11:00AM 39.3286 -78.5806 102° East 348 400 16,100 -1,920 Descending Washington Center
11:01AM 39.3064 -78.4669 104° East 335 386 14,100 -2,040 Descending Washington Center
11:02AM 39.2800 -78.3533 107° East 330 380 12,100 -1,680 Descending Washington Center
11:03AM 39.2319 -78.2606 124° Southeast 314 361 10,900 -1,080 Descending Washington Center
11:04AM 39.1922 -78.1678 119° Southeast 309 356 10,000 -840 Descending Washington Center
11:05AM 39.1586 -78.0864 118° Southeast 284 327 9,300 -840 Descending Washington Center
11:06AM 39.1247 -78.0103 120° Southeast 260 299 8,400 -1,200 Descending Washington Center
11:07AM 39.0908 -77.9344 120° Southeast 255 293 6,900 -1,620 Descending Washington Center
11:08AM 39.0650 -77.8667 116° Southeast 244 281 5,300 -1,020 Descending Washington Center
11:10AM 39.0167 -77.7333 115° Southeast 189 217 4,200 -720 Descending Potomac TRACON
11:11AM 39.0000 -77.6667 108° East 161 185 3,400 -780 Descending Potomac TRACON
11:12AM 38.9833 -77.6167 113° Southeast 175 201 2,700 -900 Descending Potomac TRACON
11:13AM 38.9667 -77.5667 113° Southeast 156 180 1,700 -960 Descending Potomac TRACON
11:14AM 38.9500 -77.5167 113° Southeast 129 148 800 -900 Descending Potomac TRACON
11:16AM 38.9474 -77.4599 165° South  Level Estimated
11:23AM 38.9474 -77.4599 165° South  Level Estimated
11:24AM 38.9474 -77.4599 165° South  Level Estimated
11:25AM 38.9474 -77.4599 165° South  Level Estimated